Terminal Aerodrome Forecast
Issued by NWS

Home | Current Version | Previous Version | Text Only | Print | Product List | Glossary On
Versions: 1 2 3 4 5 6 7 8 9 10 11 12 13 14 15 16 17 18 19 20 21 22 23 24 25 26 27 28 29 30 31 32 33
000
FTUS42 KRAH 190520
TAFRWI
TAF
KRWI 190520Z 1906/2006 21008KT P6SM VCSH BKN060
      TEMPO 1906/1909 VRB15G25KT 2SM -TSRA BKN025CB
     FM191100 33004KT P6SM BKN060
     FM192100 VRB03KT P6SM SCT050 SCT250=

USA.gov is the U.S. government's official web portal to all federal, state and local government web resources and services.